sensor_id;sensor_type;location;lat;lon;timestamp;P1;durP1;ratioP1;P2;durP2;ratioP2
25846;SDS011;13676;50.168;8.568;2022-10-31T00:00:28;15.00;;;4.38;;
25846;SDS011;13676;50.168;8.568;2022-10-31T00:02:53;11.23;;;4.20;;
25846;SDS011;13676;50.168;8.568;2022-10-31T00:05:19;10.98;;;4.25;;
25846;SDS011;13676;50.168;8.568;2022-10-31T00:07:44;9.07;;;4.35;;
25846;SDS011;13676;50.168;8.568;2022-10-31T00:10:09;7.20;;;3.88;;
25846;SDS011;13676;50.168;8.568;2022-10-31T00:12:35;8.30;;;4.05;;
25846;SDS011;13676;50.168;8.568;2022-10-31T00:15:00;14.48;;;4.97;;
25846;SDS011;13676;50.168;8.568;2022-10-31T00:17:25;9.77;;;3.95;;
25846;SDS011;13676;50.168;8.568;2022-10-31T00:19:51;8.65;;;4.30;;
25846;SDS011;13676;50.168;8.568;2022-10-31T00:22:16;10.93;;;4.18;;
25846;SDS011;13676;50.168;8.568;2022-10-31T00:24:41;8.07;;;4.97;;
25846;SDS011;13676;50.168;8.568;2022-10-31T00:27:07;8.05;;;4.10;;
25846;SDS011;13676;50.168;8.568;2022-10-31T00:29:32;9.15;;;3.92;;
25846;SDS011;13676;50.168;8.568;2022-10-31T00:31:57;10.02;;;4.60;;
25846;SDS011;13676;50.168;8.568;2022-10-31T00:34:23;6.43;;;3.72;;
25846;SDS011;13676;50.168;8.568;2022-10-31T00:36:48;9.07;;;3.85;;
25846;SDS011;13676;50.168;8.568;2022-10-31T00:39:13;9.85;;;3.70;;
25846;SDS011;13676;50.168;8.568;2022-10-31T00:41:39;12.05;;;4.00;;
25846;SDS011;13676;50.168;8.568;2022-10-31T00:44:04;10.15;;;4.22;;
25846;SDS011;13676;50.168;8.568;2022-10-31T00:46:29;6.55;;;4.22;;
25846;SDS011;13676;50.168;8.568;2022-10-31T00:48:55;10.00;;;3.95;;
25846;SDS011;13676;50.168;8.568;2022-10-31T00:51:20;6.57;;;3.83;;
25846;SDS011;13676;50.168;8.568;2022-10-31T00:53:45;9.93;;;3.90;;
25846;SDS011;13676;50.168;8.568;2022-10-31T00:56:11;9.50;;;4.30;;
25846;SDS011;13676;50.168;8.568;2022-10-31T00:58:36;7.05;;;3.95;;
25846;SDS011;13676;50.168;8.568;2022-10-31T01:01:02;12.75;;;4.00;;
25846;SDS011;13676;50.168;8.568;2022-10-31T01:03:28;9.15;;;4.30;;
25846;SDS011;13676;50.168;8.568;2022-10-31T01:08:29;9.45;;;4.55;;
25846;SDS011;13676;50.168;8.568;2022-10-31T01:13:31;7.85;;;4.07;;
25846;SDS011;13676;50.168;8.568;2022-10-31T01:15:57;8.70;;;3.90;;
25846;SDS011;13676;50.168;8.568;2022-10-31T01:18:23;5.43;;;3.87;;
25846;SDS011;13676;50.168;8.568;2022-10-31T01:21:02;9.63;;;4.43;;
25846;SDS011;13676;50.168;8.568;2022-10-31T01:23:32;6.97;;;3.80;;
25846;SDS011;13676;50.168;8.568;2022-10-31T01:25:58;8.90;;;4.18;;
25846;SDS011;13676;50.168;8.568;2022-10-31T01:28:24;9.20;;;4.18;;
25846;SDS011;13676;50.168;8.568;2022-10-31T01:30:50;7.20;;;4.38;;
25846;SDS011;13676;50.168;8.568;2022-10-31T01:33:15;9.55;;;4.03;;
25846;SDS011;13676;50.168;8.568;2022-10-31T01:35:40;8.48;;;3.75;;
25846;SDS011;13676;50.168;8.568;2022-10-31T01:38:06;5.00;;;3.65;;
25846;SDS011;13676;50.168;8.568;2022-10-31T01:40:31;8.60;;;3.80;;
25846;SDS011;13676;50.168;8.568;2022-10-31T01:42:56;11.07;;;4.25;;
25846;SDS011;13676;50.168;8.568;2022-10-31T01:45:22;11.20;;;4.25;;
25846;SDS011;13676;50.168;8.568;2022-10-31T01:47:47;7.68;;;4.40;;
25846;SDS011;13676;50.168;8.568;2022-10-31T01:50:17;10.60;;;4.82;;
25846;SDS011;13676;50.168;8.568;2022-10-31T01:52:56;6.88;;;3.90;;
25846;SDS011;13676;50.168;8.568;2022-10-31T01:57:52;10.10;;;4.35;;
25846;SDS011;13676;50.168;8.568;2022-10-31T02:00:19;8.90;;;3.90;;
25846;SDS011;13676;50.168;8.568;2022-10-31T02:02:45;13.60;;;4.35;;
25846;SDS011;13676;50.168;8.568;2022-10-31T02:05:17;9.20;;;4.07;;
25846;SDS011;13676;50.168;8.568;2022-10-31T02:10:23;7.25;;;3.75;;
25846;SDS011;13676;50.168;8.568;2022-10-31T02:12:50;7.45;;;3.80;;
25846;SDS011;13676;50.168;8.568;2022-10-31T02:15:17;7.03;;;3.88;;
25846;SDS011;13676;50.168;8.568;2022-10-31T02:17:42;10.23;;;4.88;;
25846;SDS011;13676;50.168;8.568;2022-10-31T02:22:55;14.35;;;4.60;;
25846;SDS011;13676;50.168;8.568;2022-10-31T02:25:42;10.63;;;5.15;;
25846;SDS011;13676;50.168;8.568;2022-10-31T02:28:25;13.50;;;4.65;;
25846;SDS011;13676;50.168;8.568;2022-10-31T02:33:51;8.05;;;4.55;;
25846;SDS011;13676;50.168;8.568;2022-10-31T02:41:31;11.88;;;5.40;;
25846;SDS011;13676;50.168;8.568;2022-10-31T02:44:04;8.85;;;4.68;;
25846;SDS011;13676;50.168;8.568;2022-10-31T02:49:06;14.23;;;5.40;;
25846;SDS011;13676;50.168;8.568;2022-10-31T02:51:35;12.18;;;4.90;;
25846;SDS011;13676;50.168;8.568;2022-10-31T02:54:01;12.75;;;4.82;;
25846;SDS011;13676;50.168;8.568;2022-10-31T02:56:26;8.43;;;4.63;;
25846;SDS011;13676;50.168;8.568;2022-10-31T02:58:53;10.02;;;4.88;;
25846;SDS011;13676;50.168;8.568;2022-10-31T03:01:36;8.43;;;4.55;;
25846;SDS011;13676;50.168;8.568;2022-10-31T03:06:32;11.40;;;5.25;;
25846;SDS011;13676;50.168;8.568;2022-10-31T03:11:28;9.68;;;4.55;;
25846;SDS011;13676;50.168;8.568;2022-10-31T03:14:09;6.15;;;4.47;;
25846;SDS011;13676;50.168;8.568;2022-10-31T03:19:27;11.30;;;5.28;;
25846;SDS011;13676;50.168;8.568;2022-10-31T03:22:02;11.50;;;5.30;;
25846;SDS011;13676;50.168;8.568;2022-10-31T03:24:34;6.90;;;4.78;;
25846;SDS011;13676;50.168;8.568;2022-10-31T03:27:01;10.93;;;5.53;;
25846;SDS011;13676;50.168;8.568;2022-10-31T03:29:28;18.75;;;6.57;;
25846;SDS011;13676;50.168;8.568;2022-10-31T03:31:57;13.50;;;6.32;;
25846;SDS011;13676;50.168;8.568;2022-10-31T03:34:24;10.95;;;6.05;;
25846;SDS011;13676;50.168;8.568;2022-10-31T03:36:51;11.40;;;5.53;;
25846;SDS011;13676;50.168;8.568;2022-10-31T03:39:20;11.68;;;6.07;;
25846;SDS011;13676;50.168;8.568;2022-10-31T03:42:09;10.48;;;5.72;;
25846;SDS011;13676;50.168;8.568;2022-10-31T03:44:41;9.30;;;5.93;;
25846;SDS011;13676;50.168;8.568;2022-10-31T03:47:10;14.95;;;6.28;;
25846;SDS011;13676;50.168;8.568;2022-10-31T03:49:35;13.90;;;6.28;;
25846;SDS011;13676;50.168;8.568;2022-10-31T04:00:04;13.55;;;5.65;;
25846;SDS011;13676;50.168;8.568;2022-10-31T04:02:32;10.18;;;5.97;;
25846;SDS011;13676;50.168;8.568;2022-10-31T04:04:59;9.95;;;5.75;;
25846;SDS011;13676;50.168;8.568;2022-10-31T04:07:25;10.57;;;5.35;;
25846;SDS011;13676;50.168;8.568;2022-10-31T04:09:53;15.13;;;5.47;;
25846;SDS011;13676;50.168;8.568;2022-10-31T04:12:18;8.50;;;5.07;;
25846;SDS011;13676;50.168;8.568;2022-10-31T04:14:46;14.00;;;6.00;;
25846;SDS011;13676;50.168;8.568;2022-10-31T04:17:13;10.93;;;6.05;;
25846;SDS011;13676;50.168;8.568;2022-10-31T04:19:40;9.75;;;5.85;;
25846;SDS011;13676;50.168;8.568;2022-10-31T04:22:06;11.10;;;6.22;;
25846;SDS011;13676;50.168;8.568;2022-10-31T04:24:31;15.60;;;6.05;;
25846;SDS011;13676;50.168;8.568;2022-10-31T04:26:56;10.65;;;5.72;;
25846;SDS011;13676;50.168;8.568;2022-10-31T04:29:22;11.30;;;5.93;;
25846;SDS011;13676;50.168;8.568;2022-10-31T04:31:47;10.13;;;5.72;;
25846;SDS011;13676;50.168;8.568;2022-10-31T04:34:12;12.25;;;5.40;;
25846;SDS011;13676;50.168;8.568;2022-10-31T04:36:37;10.93;;;5.95;;
25846;SDS011;13676;50.168;8.568;2022-10-31T04:39:03;13.70;;;6.10;;
25846;SDS011;13676;50.168;8.568;2022-10-31T04:41:28;12.05;;;5.65;;
25846;SDS011;13676;50.168;8.568;2022-10-31T04:43:54;10.13;;;5.82;;
25846;SDS011;13676;50.168;8.568;2022-10-31T04:46:19;8.52;;;4.88;;
25846;SDS011;13676;50.168;8.568;2022-10-31T04:48:44;10.23;;;5.60;;
25846;SDS011;13676;50.168;8.568;2022-10-31T04:51:10;12.73;;;6.18;;
25846;SDS011;13676;50.168;8.568;2022-10-31T04:53:35;10.35;;;5.68;;
25846;SDS011;13676;50.168;8.568;2022-10-31T04:56:00;9.70;;;5.55;;
25846;SDS011;13676;50.168;8.568;2022-10-31T04:58:26;11.32;;;6.03;;
25846;SDS011;13676;50.168;8.568;2022-10-31T05:00:52;9.88;;;5.45;;
25846;SDS011;13676;50.168;8.568;2022-10-31T05:03:18;14.38;;;5.82;;
25846;SDS011;13676;50.168;8.568;2022-10-31T05:05:44;11.57;;;5.43;;
25846;SDS011;13676;50.168;8.568;2022-10-31T05:08:09;12.18;;;5.38;;
25846;SDS011;13676;50.168;8.568;2022-10-31T05:10:35;8.55;;;5.30;;
25846;SDS011;13676;50.168;8.568;2022-10-31T05:13:01;10.57;;;5.45;;
25846;SDS011;13676;50.168;8.568;2022-10-31T05:15:29;22.00;;;5.78;;
25846;SDS011;13676;50.168;8.568;2022-10-31T05:17:55;9.65;;;5.68;;
25846;SDS011;13676;50.168;8.568;2022-10-31T05:20:23;13.27;;;5.90;;
25846;SDS011;13676;50.168;8.568;2022-10-31T05:22:51;8.90;;;5.47;;
25846;SDS011;13676;50.168;8.568;2022-10-31T05:25:18;13.30;;;6.88;;
25846;SDS011;13676;50.168;8.568;2022-10-31T05:27:46;14.07;;;5.80;;
25846;SDS011;13676;50.168;8.568;2022-10-31T05:30:13;8.00;;;5.40;;
25846;SDS011;13676;50.168;8.568;2022-10-31T05:35:06;11.73;;;5.40;;
25846;SDS011;13676;50.168;8.568;2022-10-31T05:37:33;11.98;;;6.35;;
25846;SDS011;13676;50.168;8.568;2022-10-31T05:40:00;11.00;;;6.68;;
25846;SDS011;13676;50.168;8.568;2022-10-31T05:42:26;12.88;;;6.30;;
25846;SDS011;13676;50.168;8.568;2022-10-31T05:44:51;12.10;;;5.93;;
25846;SDS011;13676;50.168;8.568;2022-10-31T05:47:16;11.23;;;6.13;;
25846;SDS011;13676;50.168;8.568;2022-10-31T05:49:42;10.40;;;5.32;;
25846;SDS011;13676;50.168;8.568;2022-10-31T05:52:07;9.73;;;5.35;;
25846;SDS011;13676;50.168;8.568;2022-10-31T05:54:32;10.82;;;5.40;;
25846;SDS011;13676;50.168;8.568;2022-10-31T05:56:58;10.98;;;5.63;;
25846;SDS011;13676;50.168;8.568;2022-10-31T05:59:23;10.07;;;5.57;;
25846;SDS011;13676;50.168;8.568;2022-10-31T06:01:48;11.73;;;5.93;;
25846;SDS011;13676;50.168;8.568;2022-10-31T06:04:14;9.25;;;5.57;;
25846;SDS011;13676;50.168;8.568;2022-10-31T06:06:39;12.05;;;6.28;;
25846;SDS011;13676;50.168;8.568;2022-10-31T06:09:04;14.82;;;6.00;;
25846;SDS011;13676;50.168;8.568;2022-10-31T06:11:30;12.32;;;5.43;;
25846;SDS011;13676;50.168;8.568;2022-10-31T06:16:23;17.15;;;6.57;;
25846;SDS011;13676;50.168;8.568;2022-10-31T06:18:48;11.55;;;5.82;;
25846;SDS011;13676;50.168;8.568;2022-10-31T06:21:14;15.10;;;6.20;;
25846;SDS011;13676;50.168;8.568;2022-10-31T06:23:39;16.85;;;6.75;;
25846;SDS011;13676;50.168;8.568;2022-10-31T06:26:04;12.90;;;5.57;;
25846;SDS011;13676;50.168;8.568;2022-10-31T06:28:30;9.43;;;5.57;;
25846;SDS011;13676;50.168;8.568;2022-10-31T06:30:55;11.20;;;5.80;;
25846;SDS011;13676;50.168;8.568;2022-10-31T06:33:20;7.35;;;4.95;;
25846;SDS011;13676;50.168;8.568;2022-10-31T06:35:46;9.82;;;5.97;;
25846;SDS011;13676;50.168;8.568;2022-10-31T06:38:12;9.52;;;5.75;;
25846;SDS011;13676;50.168;8.568;2022-10-31T06:40:38;11.52;;;5.82;;
25846;SDS011;13676;50.168;8.568;2022-10-31T06:43:03;10.32;;;5.53;;
25846;SDS011;13676;50.168;8.568;2022-10-31T06:45:29;7.85;;;5.15;;
25846;SDS011;13676;50.168;8.568;2022-10-31T06:47:55;10.60;;;5.65;;
25846;SDS011;13676;50.168;8.568;2022-10-31T06:50:21;10.07;;;5.47;;
25846;SDS011;13676;50.168;8.568;2022-10-31T06:52:54;8.38;;;5.43;;
25846;SDS011;13676;50.168;8.568;2022-10-31T06:55:20;10.07;;;5.25;;
25846;SDS011;13676;50.168;8.568;2022-10-31T06:57:53;7.97;;;5.60;;
25846;SDS011;13676;50.168;8.568;2022-10-31T07:00:19;11.25;;;4.95;;
25846;SDS011;13676;50.168;8.568;2022-10-31T07:02:58;10.95;;;5.80;;
25846;SDS011;13676;50.168;8.568;2022-10-31T07:05:30;11.73;;;5.53;;
25846;SDS011;13676;50.168;8.568;2022-10-31T07:07:57;14.60;;;6.05;;
25846;SDS011;13676;50.168;8.568;2022-10-31T07:10:24;10.13;;;6.10;;
25846;SDS011;13676;50.168;8.568;2022-10-31T07:12:57;13.43;;;6.93;;
25846;SDS011;13676;50.168;8.568;2022-10-31T07:15:25;11.75;;;6.47;;
25846;SDS011;13676;50.168;8.568;2022-10-31T07:17:51;10.70;;;6.47;;
25846;SDS011;13676;50.168;8.568;2022-10-31T07:20:17;11.50;;;5.72;;
25846;SDS011;13676;50.168;8.568;2022-10-31T07:22:43;18.00;;;6.95;;
25846;SDS011;13676;50.168;8.568;2022-10-31T07:25:08;10.35;;;5.78;;
25846;SDS011;13676;50.168;8.568;2022-10-31T07:27:37;15.85;;;6.88;;
25846;SDS011;13676;50.168;8.568;2022-10-31T07:30:04;13.35;;;6.47;;
25846;SDS011;13676;50.168;8.568;2022-10-31T07:32:39;14.75;;;7.00;;
25846;SDS011;13676;50.168;8.568;2022-10-31T07:35:06;14.57;;;6.90;;
25846;SDS011;13676;50.168;8.568;2022-10-31T07:37:32;14.25;;;6.47;;
25846;SDS011;13676;50.168;8.568;2022-10-31T07:39:58;13.30;;;6.85;;
25846;SDS011;13676;50.168;8.568;2022-10-31T07:42:23;11.23;;;5.95;;
25846;SDS011;13676;50.168;8.568;2022-10-31T07:44:48;16.05;;;6.82;;
25846;SDS011;13676;50.168;8.568;2022-10-31T07:47:14;16.55;;;6.20;;
25846;SDS011;13676;50.168;8.568;2022-10-31T07:49:39;13.65;;;5.97;;
25846;SDS011;13676;50.168;8.568;2022-10-31T07:52:04;9.57;;;5.30;;
25846;SDS011;13676;50.168;8.568;2022-10-31T07:54:30;8.48;;;5.07;;
25846;SDS011;13676;50.168;8.568;2022-10-31T07:56:55;8.90;;;5.38;;
25846;SDS011;13676;50.168;8.568;2022-10-31T07:59:20;10.10;;;5.63;;
25846;SDS011;13676;50.168;8.568;2022-10-31T08:01:46;10.18;;;5.43;;
25846;SDS011;13676;50.168;8.568;2022-10-31T08:04:11;11.98;;;5.78;;
25846;SDS011;13676;50.168;8.568;2022-10-31T08:06:36;8.85;;;4.72;;
25846;SDS011;13676;50.168;8.568;2022-10-31T08:09:02;11.73;;;5.57;;
25846;SDS011;13676;50.168;8.568;2022-10-31T08:11:27;10.95;;;5.30;;
25846;SDS011;13676;50.168;8.568;2022-10-31T08:13:53;7.80;;;5.32;;
25846;SDS011;13676;50.168;8.568;2022-10-31T08:16:18;10.23;;;5.18;;
25846;SDS011;13676;50.168;8.568;2022-10-31T08:18:43;10.77;;;5.20;;
25846;SDS011;13676;50.168;8.568;2022-10-31T08:21:09;14.43;;;5.75;;
25846;SDS011;13676;50.168;8.568;2022-10-31T08:23:35;8.95;;;5.20;;
25846;SDS011;13676;50.168;8.568;2022-10-31T08:26:00;9.50;;;5.35;;
25846;SDS011;13676;50.168;8.568;2022-10-31T08:28:26;10.88;;;5.68;;
25846;SDS011;13676;50.168;8.568;2022-10-31T08:30:51;10.52;;;5.85;;
25846;SDS011;13676;50.168;8.568;2022-10-31T08:33:17;8.68;;;5.30;;
25846;SDS011;13676;50.168;8.568;2022-10-31T08:35:43;7.03;;;4.28;;
25846;SDS011;13676;50.168;8.568;2022-10-31T08:38:09;10.45;;;4.97;;
25846;SDS011;13676;50.168;8.568;2022-10-31T08:40:36;11.85;;;5.65;;
25846;SDS011;13676;50.168;8.568;2022-10-31T08:45:31;7.80;;;4.95;;
25846;SDS011;13676;50.168;8.568;2022-10-31T08:47:58;8.10;;;4.40;;
25846;SDS011;13676;50.168;8.568;2022-10-31T08:50:25;17.38;;;6.63;;
25846;SDS011;13676;50.168;8.568;2022-10-31T08:52:51;11.13;;;5.93;;
25846;SDS011;13676;50.168;8.568;2022-10-31T08:55:16;13.20;;;5.82;;
25846;SDS011;13676;50.168;8.568;2022-10-31T08:57:41;13.13;;;6.38;;
25846;SDS011;13676;50.168;8.568;2022-10-31T09:00:07;14.23;;;5.72;;
25846;SDS011;13676;50.168;8.568;2022-10-31T09:02:33;10.05;;;5.85;;
25846;SDS011;13676;50.168;8.568;2022-10-31T09:05:00;12.85;;;5.97;;
25846;SDS011;13676;50.168;8.568;2022-10-31T09:07:25;17.05;;;6.22;;
25846;SDS011;13676;50.168;8.568;2022-10-31T09:09:52;15.75;;;6.85;;
25846;SDS011;13676;50.168;8.568;2022-10-31T09:12:18;10.85;;;6.38;;
25846;SDS011;13676;50.168;8.568;2022-10-31T09:14:45;12.85;;;6.47;;
25846;SDS011;13676;50.168;8.568;2022-10-31T09:17:10;14.70;;;6.07;;
25846;SDS011;13676;50.168;8.568;2022-10-31T09:19:36;17.73;;;6.85;;
25846;SDS011;13676;50.168;8.568;2022-10-31T09:22:02;14.93;;;5.40;;
25846;SDS011;13676;50.168;8.568;2022-10-31T09:24:27;12.52;;;6.28;;
25846;SDS011;13676;50.168;8.568;2022-10-31T09:26:53;7.28;;;5.20;;
25846;SDS011;13676;50.168;8.568;2022-10-31T09:29:19;9.75;;;6.07;;
25846;SDS011;13676;50.168;8.568;2022-10-31T09:31:44;11.13;;;6.32;;
25846;SDS011;13676;50.168;8.568;2022-10-31T09:34:11;9.98;;;5.07;;
25846;SDS011;13676;50.168;8.568;2022-10-31T09:36:37;8.40;;;5.18;;
25846;SDS011;13676;50.168;8.568;2022-10-31T09:39:03;14.00;;;6.13;;
25846;SDS011;13676;50.168;8.568;2022-10-31T09:41:32;10.48;;;5.43;;
25846;SDS011;13676;50.168;8.568;2022-10-31T09:52:51;11.60;;;6.07;;
25846;SDS011;13676;50.168;8.568;2022-10-31T09:55:40;14.95;;;6.50;;
25846;SDS011;13676;50.168;8.568;2022-10-31T09:58:23;9.93;;;5.80;;
25846;SDS011;13676;50.168;8.568;2022-10-31T10:00:50;8.55;;;5.57;;
25846;SDS011;13676;50.168;8.568;2022-10-31T10:05:52;9.88;;;4.75;;
25846;SDS011;13676;50.168;8.568;2022-10-31T10:08:24;10.65;;;5.57;;
25846;SDS011;13676;50.168;8.568;2022-10-31T10:16:52;11.45;;;5.88;;
25846;SDS011;13676;50.168;8.568;2022-10-31T10:19:24;11.07;;;6.22;;
25846;SDS011;13676;50.168;8.568;2022-10-31T10:30:03;18.55;;;7.95;;
25846;SDS011;13676;50.168;8.568;2022-10-31T10:32:42;12.57;;;7.30;;
25846;SDS011;13676;50.168;8.568;2022-10-31T10:35:20;12.05;;;7.00;;
25846;SDS011;13676;50.168;8.568;2022-10-31T10:37:56;10.88;;;6.82;;
25846;SDS011;13676;50.168;8.568;2022-10-31T10:40:25;12.57;;;6.43;;
25846;SDS011;13676;50.168;8.568;2022-10-31T10:46:01;11.40;;;6.25;;
25846;SDS011;13676;50.168;8.568;2022-10-31T10:59:37;12.43;;;8.27;;
25846;SDS011;13676;50.168;8.568;2022-10-31T11:02:03;14.00;;;6.38;;
25846;SDS011;13676;50.168;8.568;2022-10-31T11:04:30;14.10;;;6.43;;
25846;SDS011;13676;50.168;8.568;2022-10-31T11:07:01;13.57;;;7.03;;
25846;SDS011;13676;50.168;8.568;2022-10-31T11:09:27;12.68;;;6.32;;
25846;SDS011;13676;50.168;8.568;2022-10-31T11:11:53;14.70;;;6.63;;
25846;SDS011;13676;50.168;8.568;2022-10-31T11:14:19;18.58;;;8.77;;
25846;SDS011;13676;50.168;8.568;2022-10-31T11:16:46;16.15;;;7.43;;
25846;SDS011;13676;50.168;8.568;2022-10-31T11:19:17;13.10;;;7.45;;
25846;SDS011;13676;50.168;8.568;2022-10-31T11:21:45;18.35;;;7.68;;
25846;SDS011;13676;50.168;8.568;2022-10-31T11:26:41;15.30;;;7.50;;
25846;SDS011;13676;50.168;8.568;2022-10-31T11:31:37;10.10;;;6.38;;
25846;SDS011;13676;50.168;8.568;2022-10-31T11:34:03;8.15;;;5.25;;
25846;SDS011;13676;50.168;8.568;2022-10-31T11:36:32;12.15;;;5.45;;
25846;SDS011;13676;50.168;8.568;2022-10-31T11:39:00;14.02;;;7.32;;
25846;SDS011;13676;50.168;8.568;2022-10-31T11:41:30;14.55;;;7.00;;
25846;SDS011;13676;50.168;8.568;2022-10-31T11:44:11;11.85;;;6.90;;
25846;SDS011;13676;50.168;8.568;2022-10-31T11:46:46;10.90;;;6.18;;
25846;SDS011;13676;50.168;8.568;2022-10-31T11:49:27;15.48;;;7.65;;
25846;SDS011;13676;50.168;8.568;2022-10-31T11:51:55;12.75;;;7.03;;
25846;SDS011;13676;50.168;8.568;2022-10-31T11:54:23;10.60;;;7.10;;
25846;SDS011;13676;50.168;8.568;2022-10-31T11:57:27;12.73;;;7.13;;
25846;SDS011;13676;50.168;8.568;2022-10-31T12:00:02;15.18;;;7.13;;
25846;SDS011;13676;50.168;8.568;2022-10-31T12:02:30;16.48;;;6.40;;
25846;SDS011;13676;50.168;8.568;2022-10-31T12:05:04;14.75;;;8.02;;
25846;SDS011;13676;50.168;8.568;2022-10-31T12:07:33;12.05;;;6.90;;
25846;SDS011;13676;50.168;8.568;2022-10-31T12:09:59;13.48;;;8.02;;
25846;SDS011;13676;50.168;8.568;2022-10-31T12:15:35;17.85;;;8.93;;
25846;SDS011;13676;50.168;8.568;2022-10-31T12:17:52;12.40;;;6.93;;
25846;SDS011;13676;50.168;8.568;2022-10-31T12:20:21;14.25;;;7.43;;
25846;SDS011;13676;50.168;8.568;2022-10-31T12:25:43;12.23;;;5.32;;
25846;SDS011;13676;50.168;8.568;2022-10-31T12:31:31;9.07;;;5.70;;
25846;SDS011;13676;50.168;8.568;2022-10-31T12:37:28;9.52;;;5.28;;
25846;SDS011;13676;50.168;8.568;2022-10-31T12:40:05;10.35;;;4.03;;
25846;SDS011;13676;50.168;8.568;2022-10-31T12:47:40;7.97;;;3.15;;
25846;SDS011;13676;50.168;8.568;2022-10-31T12:50:17;6.18;;;3.00;;
25846;SDS011;13676;50.168;8.568;2022-10-31T12:52:54;8.82;;;4.20;;
25846;SDS011;13676;50.168;8.568;2022-10-31T13:03:38;11.13;;;4.68;;
25846;SDS011;13676;50.168;8.568;2022-10-31T13:06:07;9.15;;;4.70;;
25846;SDS011;13676;50.168;8.568;2022-10-31T13:08:39;9.45;;;4.00;;
25846;SDS011;13676;50.168;8.568;2022-10-31T13:11:55;9.85;;;4.30;;
25846;SDS011;13676;50.168;8.568;2022-10-31T13:16:51;7.50;;;3.88;;
25846;SDS011;13676;50.168;8.568;2022-10-31T13:19:21;8.60;;;3.58;;
25846;SDS011;13676;50.168;8.568;2022-10-31T13:21:53;8.98;;;3.75;;
25846;SDS011;13676;50.168;8.568;2022-10-31T13:24:57;8.73;;;3.72;;
25846;SDS011;13676;50.168;8.568;2022-10-31T13:27:21;10.10;;;3.65;;
25846;SDS011;13676;50.168;8.568;2022-10-31T13:32:16;7.35;;;3.80;;
25846;SDS011;13676;50.168;8.568;2022-10-31T13:34:44;12.75;;;5.80;;
25846;SDS011;13676;50.168;8.568;2022-10-31T13:37:15;9.98;;;4.60;;
25846;SDS011;13676;50.168;8.568;2022-10-31T13:44:47;12.65;;;5.10;;
25846;SDS011;13676;50.168;8.568;2022-10-31T13:47:28;18.65;;;5.05;;
25846;SDS011;13676;50.168;8.568;2022-10-31T13:55:40;11.85;;;3.85;;
25846;SDS011;13676;50.168;8.568;2022-10-31T14:01:05;10.70;;;4.70;;
25846;SDS011;13676;50.168;8.568;2022-10-31T14:03:38;10.95;;;4.57;;
25846;SDS011;13676;50.168;8.568;2022-10-31T14:06:05;9.00;;;4.30;;
25846;SDS011;13676;50.168;8.568;2022-10-31T14:08:33;7.32;;;3.60;;
25846;SDS011;13676;50.168;8.568;2022-10-31T14:11:00;11.45;;;3.78;;
25846;SDS011;13676;50.168;8.568;2022-10-31T14:13:35;11.05;;;3.90;;
25846;SDS011;13676;50.168;8.568;2022-10-31T14:18:33;4.93;;;2.88;;
25846;SDS011;13676;50.168;8.568;2022-10-31T14:21:01;6.68;;;3.75;;
25846;SDS011;13676;50.168;8.568;2022-10-31T14:23:50;8.75;;;3.80;;
25846;SDS011;13676;50.168;8.568;2022-10-31T14:28:49;13.38;;;4.05;;
25846;SDS011;13676;50.168;8.568;2022-10-31T14:36:49;11.30;;;4.10;;
25846;SDS011;13676;50.168;8.568;2022-10-31T14:39:41;8.93;;;3.50;;
25846;SDS011;13676;50.168;8.568;2022-10-31T14:50:44;6.32;;;3.05;;
25846;SDS011;13676;50.168;8.568;2022-10-31T14:55:59;4.60;;;2.97;;
25846;SDS011;13676;50.168;8.568;2022-10-31T14:58:36;8.75;;;3.45;;
25846;SDS011;13676;50.168;8.568;2022-10-31T15:01:04;6.35;;;3.38;;
25846;SDS011;13676;50.168;8.568;2022-10-31T15:03:33;8.63;;;3.15;;
25846;SDS011;13676;50.168;8.568;2022-10-31T15:06:03;8.27;;;2.97;;
25846;SDS011;13676;50.168;8.568;2022-10-31T15:08:38;7.88;;;3.28;;
25846;SDS011;13676;50.168;8.568;2022-10-31T15:11:15;8.75;;;3.17;;
25846;SDS011;13676;50.168;8.568;2022-10-31T15:16:10;9.55;;;3.30;;
25846;SDS011;13676;50.168;8.568;2022-10-31T15:18:38;7.53;;;3.33;;
25846;SDS011;13676;50.168;8.568;2022-10-31T15:21:11;7.57;;;3.15;;
25846;SDS011;13676;50.168;8.568;2022-10-31T15:23:40;8.38;;;3.05;;
25846;SDS011;13676;50.168;8.568;2022-10-31T15:26:06;8.27;;;3.38;;
25846;SDS011;13676;50.168;8.568;2022-10-31T15:28:31;6.65;;;3.22;;
25846;SDS011;13676;50.168;8.568;2022-10-31T15:30:57;7.32;;;3.38;;
25846;SDS011;13676;50.168;8.568;2022-10-31T15:33:26;9.07;;;3.60;;
25846;SDS011;13676;50.168;8.568;2022-10-31T15:35:56;8.70;;;3.45;;
25846;SDS011;13676;50.168;8.568;2022-10-31T15:38:27;7.40;;;3.50;;
25846;SDS011;13676;50.168;8.568;2022-10-31T15:40:58;12.07;;;3.80;;
25846;SDS011;13676;50.168;8.568;2022-10-31T15:43:27;6.50;;;3.55;;
25846;SDS011;13676;50.168;8.568;2022-10-31T15:45:58;7.40;;;3.10;;
25846;SDS011;13676;50.168;8.568;2022-10-31T15:48:24;7.72;;;3.53;;
25846;SDS011;13676;50.168;8.568;2022-10-31T15:50:54;8.38;;;3.97;;
25846;SDS011;13676;50.168;8.568;2022-10-31T15:53:54;8.90;;;4.43;;
25846;SDS011;13676;50.168;8.568;2022-10-31T15:56:24;8.57;;;4.13;;
25846;SDS011;13676;50.168;8.568;2022-10-31T15:58:51;12.00;;;4.55;;
25846;SDS011;13676;50.168;8.568;2022-10-31T16:01:21;8.70;;;4.05;;
25846;SDS011;13676;50.168;8.568;2022-10-31T16:03:58;18.35;;;4.45;;
25846;SDS011;13676;50.168;8.568;2022-10-31T16:06:25;10.85;;;4.30;;
25846;SDS011;13676;50.168;8.568;2022-10-31T16:08:51;9.05;;;3.88;;
25846;SDS011;13676;50.168;8.568;2022-10-31T16:11:20;14.82;;;5.47;;
25846;SDS011;13676;50.168;8.568;2022-10-31T16:16:42;12.95;;;6.03;;
25846;SDS011;13676;50.168;8.568;2022-10-31T16:19:14;10.65;;;5.93;;
25846;SDS011;13676;50.168;8.568;2022-10-31T16:21:42;8.63;;;5.35;;
25846;SDS011;13676;50.168;8.568;2022-10-31T16:26:48;9.18;;;5.15;;
25846;SDS011;13676;50.168;8.568;2022-10-31T16:29:34;20.95;;;7.07;;
25846;SDS011;13676;50.168;8.568;2022-10-31T16:32:03;19.58;;;7.10;;
25846;SDS011;13676;50.168;8.568;2022-10-31T16:34:28;15.50;;;6.75;;
25846;SDS011;13676;50.168;8.568;2022-10-31T16:36:54;18.50;;;7.50;;
25846;SDS011;13676;50.168;8.568;2022-10-31T16:39:19;17.77;;;10.85;;
25846;SDS011;13676;50.168;8.568;2022-10-31T16:41:50;13.88;;;6.75;;
25846;SDS011;13676;50.168;8.568;2022-10-31T16:44:19;10.90;;;6.32;;
25846;SDS011;13676;50.168;8.568;2022-10-31T16:46:52;20.20;;;7.13;;
25846;SDS011;13676;50.168;8.568;2022-10-31T16:49:31;19.10;;;7.00;;
25846;SDS011;13676;50.168;8.568;2022-10-31T16:51:57;22.13;;;9.48;;
25846;SDS011;13676;50.168;8.568;2022-10-31T16:54:23;27.85;;;11.27;;
25846;SDS011;13676;50.168;8.568;2022-10-31T16:56:49;13.33;;;7.83;;
25846;SDS011;13676;50.168;8.568;2022-10-31T16:59:14;14.27;;;7.03;;
25846;SDS011;13676;50.168;8.568;2022-10-31T17:01:40;17.17;;;8.05;;
25846;SDS011;13676;50.168;8.568;2022-10-31T17:04:07;14.98;;;7.38;;
25846;SDS011;13676;50.168;8.568;2022-10-31T17:06:33;12.60;;;6.38;;
25846;SDS011;13676;50.168;8.568;2022-10-31T17:09:00;11.63;;;5.88;;
25846;SDS011;13676;50.168;8.568;2022-10-31T17:11:27;11.90;;;5.15;;
25846;SDS011;13676;50.168;8.568;2022-10-31T17:13:53;9.90;;;4.28;;
25846;SDS011;13676;50.168;8.568;2022-10-31T17:16:19;13.32;;;5.40;;
25846;SDS011;13676;50.168;8.568;2022-10-31T17:18:44;10.93;;;4.90;;
25846;SDS011;13676;50.168;8.568;2022-10-31T17:21:14;10.57;;;5.13;;
25846;SDS011;13676;50.168;8.568;2022-10-31T17:23:44;11.50;;;5.78;;
25846;SDS011;13676;50.168;8.568;2022-10-31T17:26:09;14.27;;;7.30;;
25846;SDS011;13676;50.168;8.568;2022-10-31T17:28:36;22.03;;;10.67;;
25846;SDS011;13676;50.168;8.568;2022-10-31T17:31:01;14.77;;;8.93;;